createdAt,value
2019-03-19T00:01:42.305Z,98979.14
2019-03-19T00:04:30.139Z,98983.09
2019-03-19T00:07:17.561Z,98988.68
2019-03-19T00:10:07.902Z,98990.59
2019-03-19T00:12:54.670Z,98991.80
2019-03-19T00:15:41.942Z,98992.02
2019-03-19T00:18:29.093Z,98994.25
2019-03-19T00:21:16.619Z,98997.44
2019-03-19T00:24:04.251Z,98992.70
2019-03-19T00:26:51.366Z,98997.80
2019-03-19T00:29:39.099Z,99001.36
2019-03-19T00:32:26.930Z,99001.14
2019-03-19T00:35:14.457Z,99008.72
2019-03-19T00:38:02.291Z,99005.78
2019-03-19T00:40:49.407Z,99005.27
2019-03-19T00:43:36.730Z,99006.27
2019-03-19T00:46:24.060Z,99008.30
2019-03-19T00:49:11.068Z,99011.84
2019-03-19T00:51:58.496Z,99010.06
2019-03-19T00:54:46.020Z,99003.03
2019-03-19T00:57:33.033Z,99004.16
2019-03-19T01:00:21.355Z,99004.27
2019-03-19T01:03:08.294Z,99006.52
2019-03-19T01:05:55.512Z,99002.23
2019-03-19T01:08:42.937Z,99002.34
2019-03-19T01:11:30.667Z,99008.75
2019-03-19T01:14:18.190Z,99008.53
2019-03-19T01:17:06.023Z,99012.56
2019-03-19T01:19:53.245Z,99013.87
2019-03-19T01:22:40.978Z,99010.54
2019-03-19T01:25:28.502Z,99012.31
2019-03-19T01:28:16.232Z,99009.81
2019-03-19T01:31:03.636Z,99011.12
2019-03-19T01:33:50.875Z,99003.22
2019-03-19T01:36:38.709Z,99010.32
2019-03-19T01:39:25.825Z,99011.77
2019-03-19T01:42:13.357Z,99012.23
2019-03-19T01:45:01.085Z,99019.34
2019-03-19T01:47:48.712Z,99022.20
2019-03-19T01:50:36.136Z,99025.74
2019-03-19T01:53:23.428Z,99029.91
2019-03-19T01:56:11.190Z,99041.45
2019-03-19T01:58:58.637Z,99046.08
2019-03-19T02:01:46.350Z,99045.51
2019-03-19T02:04:34.076Z,99043.11
2019-03-19T02:07:21.604Z,99040.16
2019-03-19T02:10:13.959Z,99041.83
2019-03-19T02:13:01.369Z,99045.12
2019-03-19T02:15:48.892Z,99049.73
2019-03-19T02:18:36.420Z,99049.27
2019-03-19T02:21:23.537Z,99057.66
2019-03-19T02:24:11.066Z,99058.97
2019-03-19T02:26:58.589Z,99056.36
2019-03-19T02:29:46.218Z,99051.51
2019-03-19T02:32:33.643Z,99055.45
2019-03-19T02:35:20.802Z,99057.55
2019-03-19T02:38:08.505Z,99050.31
2019-03-19T02:40:56.326Z,99054.12
2019-03-19T02:43:43.853Z,99058.97
2019-03-19T02:46:31.487Z,99062.41
2019-03-19T02:49:19.627Z,99071.78
2019-03-19T02:52:07.266Z,99071.78
2019-03-19T02:54:54.877Z,99068.23
2019-03-19T02:57:42.612Z,99080.31
2019-03-19T03:00:30.554Z,99085.30
2019-03-19T03:03:17.977Z,99081.99
2019-03-19T03:06:05.922Z,99079.63
2019-03-19T03:08:53.344Z,99085.20
2019-03-19T03:11:40.974Z,99076.66
2019-03-19T03:14:28.496Z,99078.45
2019-03-19T03:17:16.240Z,99081.30
2019-03-19T03:20:05.385Z,99089.25
2019-03-19T03:22:53.034Z,99099.17
2019-03-19T03:25:40.446Z,99104.38
2019-03-19T03:28:27.970Z,99104.05
2019-03-19T03:31:15.744Z,99109.59
2019-03-19T03:34:03.244Z,99115.77
2019-03-19T03:36:50.448Z,99120.02
2019-03-19T03:39:38.280Z,99122.75
2019-03-19T03:42:26.128Z,99120.15
2019-03-19T03:45:18.131Z,99118.48
2019-03-19T03:48:05.982Z,99118.23
2019-03-19T03:50:53.811Z,99122.50
2019-03-19T03:53:42.162Z,99127.73
2019-03-19T03:56:29.790Z,99136.72
2019-03-19T03:59:17.617Z,99145.84
2019-03-19T04:02:05.253Z,99138.02
2019-03-19T04:04:52.480Z,99142.02
2019-03-19T04:07:40.202Z,99138.50
2019-03-19T04:10:27.838Z,99136.83
2019-03-19T04:13:15.766Z,99141.20
2019-03-19T04:16:03.717Z,99149.63
2019-03-19T04:18:51.353Z,99164.05
2019-03-19T04:21:38.961Z,99163.45
2019-03-19T04:24:27.003Z,99151.02
2019-03-19T04:27:16.305Z,99157.30
2019-03-19T04:30:05.967Z,99161.21
2019-03-19T04:32:53.715Z,99160.74
2019-03-19T04:35:42.257Z,99163.11
2019-03-19T04:38:30.057Z,99163.58
2019-03-19T04:41:17.482Z,99160.97
2019-03-19T04:44:04.807Z,99163.34
2019-03-19T04:46:52.330Z,99168.11
2019-03-19T04:49:39.958Z,99174.12
2019-03-19T04:52:27.589Z,99166.44
2019-03-19T04:55:17.281Z,99175.90
2019-03-19T04:58:04.893Z,99174.23
2019-03-19T05:00:52.212Z,99175.43
2019-03-19T05:03:39.847Z,99172.45
2019-03-19T05:06:27.573Z,99174.00
2019-03-19T05:09:15.101Z,99173.66
2019-03-19T05:12:02.731Z,99177.17
2019-03-19T05:14:50.360Z,99186.89
2019-03-19T05:17:37.783Z,99180.24
2019-03-19T05:20:25.517Z,99188.16
2019-03-19T05:23:13.465Z,99184.02
2019-03-19T05:26:01.288Z,99186.11
2019-03-19T05:28:49.220Z,99190.86
2019-03-19T05:31:36.850Z,99197.03
2019-03-19T05:34:24.478Z,99202.10
2019-03-19T05:37:12.251Z,99203.54
2019-03-19T05:39:59.530Z,99200.10
2019-03-19T05:42:47.057Z,99207.08
2019-03-19T05:45:35.097Z,99210.27
2019-03-19T05:48:22.628Z,99205.53
2019-03-19T05:51:10.146Z,99211.67
2019-03-19T05:53:58.086Z,99220.55
2019-03-19T05:56:45.918Z,99227.38
2019-03-19T05:59:33.537Z,99233.09
2019-03-19T06:02:21.271Z,99241.61
2019-03-19T06:05:11.341Z,99248.40
2019-03-19T06:07:58.576Z,99247.80
2019-03-19T06:10:45.795Z,99260.82
2019-03-19T06:13:33.629Z,99254.92
2019-03-19T06:16:21.360Z,99261.42
2019-03-19T06:19:09.407Z,99261.53
2019-03-19T06:21:58.359Z,99266.03
2019-03-19T06:24:45.987Z,99277.83
2019-03-19T06:27:33.409Z,99285.64
2019-03-19T06:30:22.569Z,99294.06
2019-03-19T06:33:09.796Z,99286.15
2019-03-19T06:35:57.322Z,99287.15
2019-03-19T06:38:44.852Z,99290.92
2019-03-19T06:41:31.860Z,99300.94
2019-03-19T06:44:20.104Z,99296.36
2019-03-19T06:47:07.733Z,99296.95
2019-03-19T06:49:55.262Z,99302.17
2019-03-19T06:52:42.902Z,99296.80
2019-03-19T06:55:30.209Z,99296.29
2019-03-19T06:58:18.123Z,99303.64
2019-03-19T07:01:06.752Z,99306.39
2019-03-19T07:03:54.326Z,99309.10
2019-03-19T07:06:41.956Z,99313.95
2019-03-19T07:09:29.278Z,99319.68
2019-03-19T07:12:16.401Z,99319.39
2019-03-19T07:15:04.126Z,99321.90
2019-03-19T07:17:52.165Z,99327.27
2019-03-19T07:20:39.694Z,99328.59
2019-03-19T07:23:27.114Z,99323.29
2019-03-19T07:26:14.850Z,99332.54
2019-03-19T07:29:02.370Z,99334.09
2019-03-19T07:31:50.001Z,99341.53
2019-03-19T07:34:37.630Z,99342.59
2019-03-19T07:37:25.161Z,99342.75
2019-03-19T07:40:23.467Z,99341.67
2019-03-19T07:43:11.067Z,99343.48
2019-03-19T07:45:58.576Z,99344.30
2019-03-19T07:48:46.252Z,99351.45
2019-03-19T07:51:33.805Z,99355.03
2019-03-19T07:54:21.168Z,99358.39
2019-03-19T07:57:08.488Z,99359.16
2019-03-19T07:59:56.318Z,99365.28
2019-03-19T08:02:43.849Z,99381.11
2019-03-19T08:05:33.425Z,99384.59
2019-03-19T08:08:20.340Z,99386.91
2019-03-19T08:11:07.762Z,99392.45
2019-03-19T08:13:55.602Z,99401.69
2019-03-19T08:16:42.717Z,99396.88
2019-03-19T08:19:30.138Z,99398.94
2019-03-19T08:22:17.252Z,99400.59
2019-03-19T08:25:08.833Z,99399.55
2019-03-19T08:27:56.503Z,99399.67
2019-03-19T08:30:43.847Z,99408.66
2019-03-19T08:33:30.941Z,99401.71
2019-03-19T08:36:18.878Z,99410.77
2019-03-19T08:39:07.325Z,99408.93
2019-03-19T08:41:54.858Z,99412.50
2019-03-19T08:44:42.179Z,99413.67
2019-03-19T08:47:29.891Z,99407.83
2019-03-19T08:50:21.430Z,99405.89
2019-03-19T08:53:08.952Z,99417.34
2019-03-19T08:55:56.376Z,99406.17
2019-03-19T08:58:43.672Z,99407.77
2019-03-19T09:01:31.123Z,99408.09
2019-03-19T09:04:18.648Z,99401.25
2019-03-19T09:07:06.485Z,99405.84
2019-03-19T09:09:54.111Z,99406.95
2019-03-19T09:12:41.332Z,99407.97
2019-03-19T09:15:29.718Z,99412.34
2019-03-19T09:18:16.918Z,99406.41
2019-03-19T09:21:04.421Z,99410.72
2019-03-19T09:23:51.641Z,99413.67
2019-03-19T09:26:39.271Z,99417.83
2019-03-19T09:29:26.391Z,99420.64
2019-03-19T09:32:13.816Z,99418.82
2019-03-19T09:35:01.446Z,99420.97
2019-03-19T09:37:57.643Z,99424.31
2019-03-19T09:40:37.629Z,99426.33
2019-03-19T09:43:25.248Z,99346.41
2019-03-19T09:46:12.772Z,99415.06
2019-03-19T09:49:00.595Z,99417.08
2019-03-19T09:51:48.954Z,99423.05
2019-03-19T09:54:36.069Z,99427.91
2019-03-19T09:57:23.597Z,99422.88
2019-03-19T10:00:19.317Z,99427.06
2019-03-19T10:03:07.047Z,99424.61
2019-03-19T10:05:54.472Z,99426.44
2019-03-19T10:08:42.205Z,99426.91
2019-03-19T10:11:29.833Z,99427.55
2019-03-19T10:14:17.154Z,99431.33
2019-03-19T10:17:04.688Z,99431.47
2019-03-19T10:19:52.105Z,99445.07
2019-03-19T10:22:39.327Z,99438.61
2019-03-19T10:25:26.754Z,99441.78
2019-03-19T10:28:14.378Z,99435.81
2019-03-19T10:31:01.599Z,99434.83
2019-03-19T10:33:49.431Z,99432.34
2019-03-19T10:36:37.465Z,99444.06
2019-03-19T10:39:25.094Z,99440.09
2019-03-19T10:42:12.521Z,99433.56
2019-03-19T10:45:00.335Z,99440.23
2019-03-19T10:47:47.989Z,99427.30
2019-03-19T10:50:35.237Z,99425.73
2019-03-19T10:53:22.931Z,99430.00
2019-03-19T10:56:10.868Z,99432.14
2019-03-19T10:58:58.292Z,99431.16
2019-03-19T11:01:45.920Z,99422.47
2019-03-19T11:04:33.612Z,99424.63
2019-03-19T11:07:21.818Z,99418.00
2019-03-19T11:10:11.096Z,99430.20
2019-03-19T11:12:58.848Z,99421.95
2019-03-19T11:15:46.835Z,99426.42
2019-03-19T11:18:34.462Z,99437.29
2019-03-19T11:21:22.193Z,99434.47
2019-03-19T11:24:09.309Z,99429.54
2019-03-19T11:26:56.938Z,99437.15
2019-03-19T11:29:44.461Z,99430.04
2019-03-19T11:32:31.787Z,99434.17
2019-03-19T11:35:19.429Z,99432.03
2019-03-19T11:38:08.167Z,99429.22
2019-03-19T11:40:55.699Z,99430.03
2019-03-19T11:43:43.131Z,99427.20
2019-03-19T11:46:30.810Z,99432.72
2019-03-19T11:49:18.525Z,99426.20
2019-03-19T11:52:06.108Z,99421.45
2019-03-19T11:54:53.432Z,99424.51
2019-03-19T11:57:41.454Z,99430.58
2019-03-19T12:00:32.688Z,99419.69
2019-03-19T12:03:21.642Z,99417.13
2019-03-19T12:06:08.863Z,99416.44
2019-03-19T12:08:56.598Z,99412.48
2019-03-19T12:11:44.119Z,99422.34
2019-03-19T12:14:31.752Z,99422.47
2019-03-19T12:17:19.173Z,99419.41
2019-03-19T12:20:12.130Z,99433.80
2019-03-19T12:22:59.555Z,99432.69
2019-03-19T12:25:47.078Z,99431.56
2019-03-19T12:28:39.590Z,99438.22
2019-03-19T12:31:23.357Z,99449.63
2019-03-19T12:34:11.202Z,99450.25
2019-03-19T12:36:58.629Z,99446.54
2019-03-19T12:39:46.626Z,99450.33
2019-03-19T12:42:33.982Z,99442.89
2019-03-19T12:45:22.299Z,99441.94
2019-03-19T12:48:09.747Z,99442.58
2019-03-19T12:50:57.296Z,99445.07
2019-03-19T12:53:44.799Z,99442.89
2019-03-19T12:56:32.430Z,99440.58
2019-03-19T12:59:20.728Z,99445.69
2019-03-19T13:02:08.610Z,99447.53
2019-03-19T13:04:56.033Z,99446.39
2019-03-19T13:07:43.671Z,99440.58
2019-03-19T13:10:31.298Z,99437.59
2019-03-19T13:13:18.562Z,99440.09
2019-03-19T13:16:06.050Z,99434.15
2019-03-19T13:18:53.193Z,99428.95
2019-03-19T13:21:41.093Z,99437.99
2019-03-19T13:24:28.844Z,99428.26
2019-03-19T13:27:15.936Z,99426.09
2019-03-19T13:30:03.876Z,99427.25
2019-03-19T13:32:51.503Z,99421.97
2019-03-19T13:35:39.469Z,99417.45
2019-03-19T13:38:26.556Z,99430.81
2019-03-19T13:41:14.288Z,99428.67
2019-03-19T13:44:01.611Z,99428.84
2019-03-19T13:46:49.443Z,99431.48
2019-03-19T13:49:36.872Z,99433.81
2019-03-19T13:52:24.500Z,99431.52
2019-03-19T13:55:15.205Z,99439.11
2019-03-19T13:58:04.158Z,99432.31
2019-03-19T14:00:55.833Z,99432.47
2019-03-19T14:03:40.546Z,99431.48
2019-03-19T14:06:28.374Z,99436.31
2019-03-19T14:09:15.902Z,99445.71
2019-03-19T14:12:03.616Z,99446.41
2019-03-19T14:14:51.880Z,99447.86
2019-03-19T14:17:39.402Z,99447.38
2019-03-19T14:20:26.622Z,99444.41
2019-03-19T14:23:15.275Z,99445.21
2019-03-19T14:26:02.907Z,99449.70
2019-03-19T14:28:50.647Z,99453.00
2019-03-19T14:31:38.062Z,99445.21
2019-03-19T14:34:25.484Z,99456.77
2019-03-19T14:37:13.216Z,99456.27
2019-03-19T14:40:00.640Z,99452.95
2019-03-19T14:42:48.885Z,99456.42
2019-03-19T14:45:36.274Z,99461.02
2019-03-19T14:48:23.936Z,99460.53
2019-03-19T14:51:11.462Z,99462.33
2019-03-19T14:53:59.501Z,99460.02
2019-03-19T14:56:46.926Z,99467.61
2019-03-19T14:59:34.349Z,99463.31
2019-03-19T15:02:22.288Z,99468.11
2019-03-19T15:05:10.837Z,99470.75
2019-03-19T15:07:58.261Z,99464.83
2019-03-19T15:10:45.892Z,99462.17
2019-03-19T15:13:33.007Z,99464.12
2019-03-19T15:16:20.738Z,99463.95
2019-03-19T15:19:08.572Z,99466.52
2019-03-19T15:21:56.102Z,99472.61
2019-03-19T15:24:43.628Z,99470.09
2019-03-19T15:27:30.653Z,99467.82
2019-03-19T15:30:19.339Z,99470.13
2019-03-19T15:33:07.028Z,99469.80
2019-03-19T15:35:58.756Z,99467.66
2019-03-19T15:38:46.586Z,99464.99
2019-03-19T15:41:34.314Z,99463.31
2019-03-19T15:44:22.045Z,99464.48
2019-03-19T15:47:09.470Z,99471.56
2019-03-19T15:49:56.792Z,99473.52
2019-03-19T15:52:44.627Z,99469.44
2019-03-19T15:55:31.952Z,99475.47
2019-03-19T15:58:19.681Z,99477.06
2019-03-19T16:01:07.307Z,99486.53
2019-03-19T16:03:54.426Z,99483.27
2019-03-19T16:06:42.054Z,99481.40
2019-03-19T16:09:29.378Z,99494.77
2019-03-19T16:12:17.121Z,99487.73
2019-03-19T16:15:08.425Z,99493.39
2019-03-19T16:17:55.853Z,99496.73
2019-03-19T16:20:43.584Z,99499.33
2019-03-19T16:23:31.104Z,99503.41
2019-03-19T16:26:18.735Z,99509.05
2019-03-19T16:29:06.466Z,99514.67
2019-03-19T16:31:54.094Z,99515.02
2019-03-19T16:34:41.523Z,99521.16
2019-03-19T16:37:30.480Z,99524.84
2019-03-19T16:40:21.959Z,99524.32
2019-03-19T16:43:10.757Z,99524.59
2019-03-19T16:45:58.280Z,99536.48
2019-03-19T16:48:45.910Z,99532.89
2019-03-19T16:51:33.440Z,99542.45
2019-03-19T16:54:20.978Z,99545.34
2019-03-19T16:57:08.615Z,99542.02
2019-03-19T16:59:55.912Z,99544.03
2019-03-19T17:02:43.631Z,99555.17
2019-03-19T17:05:31.481Z,99549.39
2019-03-19T17:08:19.013Z,99557.06
2019-03-19T17:11:06.349Z,99560.16
2019-03-19T17:13:54.166Z,99565.22
2019-03-19T17:16:42.100Z,99574.28
2019-03-19T17:19:29.524Z,99575.31
2019-03-19T17:22:16.943Z,99571.02
2019-03-19T17:25:06.663Z,99575.18
2019-03-19T17:27:54.660Z,99585.73
2019-03-19T17:30:42.391Z,99585.41
2019-03-19T17:33:30.021Z,99591.77
2019-03-19T17:36:16.965Z,99600.61
2019-03-19T17:39:07.123Z,99598.88
2019-03-19T17:41:54.760Z,99605.75
2019-03-19T17:44:42.427Z,99614.36
2019-03-19T17:47:30.212Z,99612.12
2019-03-19T17:50:20.715Z,99618.57
2019-03-19T17:53:08.236Z,99617.64
2019-03-19T17:55:55.968Z,99625.59
2019-03-19T17:58:43.625Z,99623.89
2019-03-19T18:01:31.433Z,99635.05
2019-03-19T18:04:19.573Z,99633.66
2019-03-19T18:07:06.995Z,99629.73
2019-03-19T18:09:54.421Z,99640.30
2019-03-19T18:12:42.253Z,99632.03
2019-03-19T18:15:29.681Z,99642.38
2019-03-19T18:18:17.619Z,99638.72
2019-03-19T18:21:05.041Z,99634.91
2019-03-19T18:23:52.666Z,99643.23
2019-03-19T18:26:40.401Z,99636.67
2019-03-19T18:29:27.831Z,99642.33
2019-03-19T18:32:15.557Z,99648.34
2019-03-19T18:35:02.780Z,99645.43
2019-03-19T18:37:50.639Z,99644.31
2019-03-19T18:40:38.005Z,99639.70
2019-03-19T18:43:25.149Z,99651.64
2019-03-19T18:46:12.784Z,99650.75
2019-03-19T18:49:00.306Z,99654.88
2019-03-19T18:51:47.830Z,99658.44
2019-03-19T18:54:35.366Z,99663.19
2019-03-19T18:57:23.293Z,99670.41
2019-03-19T19:00:19.138Z,99657.25
2019-03-19T19:03:06.749Z,99665.72
2019-03-19T19:05:54.578Z,99662.19
2019-03-19T19:08:41.793Z,99668.81
2019-03-19T19:11:29.426Z,99676.16
2019-03-19T19:14:17.052Z,99674.71
2019-03-19T19:17:04.380Z,99674.54
2019-03-19T19:19:51.900Z,99672.44
2019-03-19T19:22:39.235Z,99679.29
2019-03-19T19:25:27.297Z,99686.05
2019-03-19T19:28:14.891Z,99688.66
2019-03-19T19:31:02.626Z,99689.55
2019-03-19T19:33:50.248Z,99689.93
2019-03-19T19:36:37.476Z,99687.53
2019-03-19T19:39:25.205Z,99691.23
2019-03-19T19:42:12.527Z,99689.94
2019-03-19T19:45:00.360Z,99704.46
2019-03-19T19:47:48.101Z,99700.41
2019-03-19T19:50:36.025Z,99696.26
2019-03-19T19:53:23.657Z,99699.10
2019-03-19T19:56:11.180Z,99708.27
2019-03-19T19:58:58.296Z,99708.38
2019-03-19T20:01:45.822Z,99713.39
2019-03-19T20:04:33.251Z,99713.98
2019-03-19T20:07:20.367Z,99722.27
2019-03-19T20:10:14.048Z,99717.27
2019-03-19T20:13:01.867Z,99722.50
2019-03-19T20:15:49.702Z,99724.28
2019-03-19T20:18:37.025Z,99721.77
2019-03-19T20:21:24.243Z,99729.48
2019-03-19T20:24:12.284Z,99726.73
2019-03-19T20:27:00.013Z,99732.39
2019-03-19T20:29:47.439Z,99733.59
2019-03-19T20:32:35.079Z,99731.17
2019-03-19T20:35:22.802Z,99738.86
2019-03-19T20:38:10.324Z,99750.55
2019-03-19T20:40:58.160Z,99752.09
2019-03-19T20:43:45.591Z,99758.28
2019-03-19T20:46:37.755Z,99760.52
2019-03-19T20:49:25.248Z,99765.98
2019-03-19T20:52:12.659Z,99767.20
2019-03-19T20:55:00.358Z,99771.30
2019-03-19T20:57:47.926Z,99767.73
2019-03-19T21:00:35.279Z,99770.52
2019-03-19T21:03:22.979Z,99774.73
2019-03-19T21:06:10.617Z,99783.27
2019-03-19T21:08:58.634Z,99791.82
2019-03-19T21:11:45.969Z,99793.88
2019-03-19T21:14:33.810Z,99800.34
2019-03-19T21:17:21.230Z,99797.86
2019-03-19T21:20:08.873Z,99797.24
2019-03-19T21:23:11.380Z,99807.40
2019-03-19T21:26:12.069Z,99801.47
2019-03-19T21:29:14.242Z,99809.77
2019-03-19T21:32:15.384Z,99809.73
2019-03-19T21:35:13.568Z,99811.03
2019-03-19T21:38:09.284Z,99807.83
2019-03-19T21:40:56.811Z,99801.49
2019-03-19T21:43:44.547Z,99814.86
2019-03-19T21:46:31.965Z,99810.23
2019-03-19T21:49:19.902Z,99809.44
2019-03-19T21:52:07.332Z,99808.88
2019-03-19T21:54:54.748Z,99809.59
2019-03-19T21:57:41.965Z,99811.42
2019-03-19T22:00:30.001Z,99818.41
2019-03-19T22:03:17.529Z,99814.83
2019-03-19T22:06:05.263Z,99814.12
2019-03-19T22:08:52.481Z,99817.63
2019-03-19T22:11:39.907Z,99819.81
2019-03-19T22:14:27.539Z,99820.95
2019-03-19T22:17:14.750Z,99822.62
2019-03-19T22:20:02.381Z,99826.44
2019-03-19T22:22:49.809Z,99827.89
2019-03-19T22:25:37.328Z,99828.17
2019-03-19T22:28:24.654Z,99833.02
2019-03-19T22:31:12.385Z,99830.06
2019-03-19T22:33:59.812Z,99830.41
2019-03-19T22:36:47.032Z,99826.59
2019-03-19T22:39:35.171Z,99824.96
2019-03-19T22:42:23.309Z,99828.41
2019-03-19T22:45:13.483Z,99835.19
2019-03-19T22:48:02.070Z,99838.30
2019-03-19T22:50:49.167Z,99841.05
2019-03-19T22:53:36.496Z,99847.09
2019-03-19T22:56:23.921Z,99845.47
2019-03-19T22:59:11.848Z,99848.56
2019-03-19T23:01:59.789Z,99852.84
2019-03-19T23:04:48.549Z,99860.75
2019-03-19T23:07:35.666Z,99863.70
2019-03-19T23:10:22.931Z,99870.70
2019-03-19T23:13:11.871Z,99874.61
2019-03-19T23:15:59.264Z,99876.38
2019-03-19T23:18:46.582Z,99877.88
2019-03-19T23:21:34.516Z,99878.89
2019-03-19T23:24:21.940Z,99877.98
2019-03-19T23:27:09.160Z,99873.89
2019-03-19T23:29:56.998Z,99883.39
2019-03-19T23:32:45.135Z,99889.71
2019-03-19T23:35:32.514Z,99882.29
2019-03-19T23:38:21.122Z,99883.40
2019-03-19T23:41:08.230Z,99890.17
2019-03-19T23:43:55.477Z,99884.89
2019-03-19T23:46:42.566Z,99883.78
2019-03-19T23:49:29.909Z,99888.16
2019-03-19T23:52:17.429Z,99885.66
2019-03-19T23:55:07.175Z,99888.91
2019-03-19T23:57:54.423Z,99896.61
